createdAt,value
2022-11-16T00:03:23.931Z,50.22
2022-11-16T00:09:48.455Z,50.27
2022-11-16T00:16:12.964Z,50.32
2022-11-16T00:22:37.347Z,50.37
2022-11-16T00:29:02.188Z,50.40
2022-11-16T00:35:26.790Z,50.46
2022-11-16T00:41:51.293Z,50.52
2022-11-16T00:48:15.852Z,50.58
2022-11-16T00:54:40.351Z,50.65
2022-11-16T01:01:04.955Z,50.74
2022-11-16T01:07:29.595Z,50.83
2022-11-16T01:13:54.300Z,50.96
2022-11-16T01:20:18.716Z,51.15
2022-11-16T01:26:43.171Z,51.25
2022-11-16T01:33:00.609Z,51.29
2022-11-16T01:39:25.113Z,51.28
2022-11-16T01:45:49.626Z,51.38
2022-11-16T01:52:14.119Z,51.48
2022-11-16T01:58:38.633Z,51.57
2022-11-16T02:05:03.127Z,51.67
2022-11-16T02:11:32.366Z,51.67
2022-11-16T02:18:21.012Z,51.74
2022-11-16T02:24:25.029Z,51.83
2022-11-16T02:30:49.413Z,51.82
2022-11-16T02:37:13.684Z,52.01
2022-11-16T02:43:40.606Z,52.10
2022-11-16T02:50:05.038Z,52.19
2022-11-16T02:56:28.340Z,52.25
2022-11-16T03:02:55.315Z,52.30
2022-11-16T03:09:19.670Z,52.33
2022-11-16T03:15:43.962Z,52.38
2022-11-16T03:22:08.239Z,52.44
2022-11-16T03:28:38.697Z,52.51
2022-11-16T03:35:03.078Z,52.52
2022-11-16T03:41:27.360Z,52.53
2022-11-16T03:47:51.737Z,52.55
2022-11-16T03:54:16.109Z,52.57
2022-11-16T04:00:40.487Z,52.63
2022-11-16T04:07:03.431Z,52.75
2022-11-16T04:13:42.926Z,52.84
2022-11-16T04:19:57.900Z,52.80
2022-11-16T04:26:22.818Z,52.87
2022-11-16T04:32:45.641Z,52.93
2022-11-16T04:39:10.115Z,53.00
2022-11-16T04:45:35.752Z,53.00
2022-11-16T04:52:00.558Z,53.03
2022-11-16T04:58:24.935Z,53.02
2022-11-16T05:04:49.277Z,53.00
2022-11-16T05:11:13.559Z,52.97
2022-11-16T05:17:37.893Z,52.95
2022-11-16T05:24:00.869Z,52.97
2022-11-16T05:30:25.290Z,52.96
2022-11-16T05:36:52.525Z,52.99
2022-11-16T05:43:16.896Z,53.06
2022-11-16T05:49:41.417Z,53.24
2022-11-16T05:56:05.979Z,53.16
2022-11-16T06:02:30.427Z,53.02
2022-11-16T06:08:54.704Z,52.82
2022-11-16T06:15:19.035Z,52.58
2022-11-16T06:21:43.332Z,52.35
2022-11-16T06:28:08.308Z,52.09
2022-11-16T06:34:32.910Z,51.86
2022-11-16T06:40:57.332Z,51.70
2022-11-16T06:47:21.721Z,51.57
2022-11-16T06:53:48.902Z,51.41
2022-11-16T07:00:13.313Z,51.26
2022-11-16T07:06:37.601Z,51.09
2022-11-16T07:13:02.020Z,50.96
2022-11-16T07:19:26.425Z,50.80
2022-11-16T07:25:50.770Z,50.85
2022-11-16T07:32:15.082Z,51.03
2022-11-16T07:38:48.153Z,51.20
2022-11-16T07:45:12.496Z,51.15
2022-11-16T07:51:36.781Z,51.01
2022-11-16T07:58:01.081Z,50.91
2022-11-16T08:04:25.438Z,50.77
2022-11-16T08:10:49.774Z,50.62
2022-11-16T08:17:14.211Z,50.47
2022-11-16T08:23:41.166Z,50.09
2022-11-16T08:30:05.554Z,49.85
2022-11-16T08:36:29.808Z,49.53
2022-11-16T08:42:54.087Z,49.27
2022-11-16T08:49:18.479Z,49.10
2022-11-16T08:55:42.969Z,49.06
2022-11-16T09:02:13.271Z,48.95
2022-11-16T09:08:37.649Z,48.92
2022-11-16T09:15:02.071Z,48.86
2022-11-16T09:21:26.542Z,48.81
2022-11-16T09:27:50.831Z,48.73
2022-11-16T09:34:15.310Z,48.72
2022-11-16T09:40:39.604Z,48.66
2022-11-16T09:47:12.740Z,48.58
2022-11-16T09:53:45.974Z,48.50
2022-11-16T10:00:12.835Z,48.40
2022-11-16T10:06:39.808Z,48.30
2022-11-16T10:13:22.230Z,48.21
2022-11-16T10:20:08.173Z,48.08
2022-11-16T10:26:41.686Z,47.99
2022-11-16T10:33:27.200Z,47.82
2022-11-16T10:39:51.686Z,47.65
2022-11-16T10:46:14.494Z,47.46
2022-11-16T10:52:38.876Z,47.26
2022-11-16T10:59:03.421Z,47.10
2022-11-16T11:05:27.800Z,46.94
2022-11-16T11:11:50.514Z,46.80
2022-11-16T11:18:14.907Z,46.64
2022-11-16T11:24:44.827Z,46.49
2022-11-16T11:31:09.881Z,46.41
2022-11-16T11:37:39.959Z,46.32
2022-11-16T11:44:07.228Z,46.24
2022-11-16T11:50:31.611Z,46.22
2022-11-16T11:56:56.135Z,46.22
2022-11-16T12:03:20.585Z,46.21
2022-11-16T12:09:51.055Z,46.17
2022-11-16T12:16:20.440Z,46.22
2022-11-16T12:23:01.130Z,46.28
2022-11-16T12:29:25.435Z,46.37
2022-11-16T12:35:49.981Z,46.45
2022-11-16T12:42:11.462Z,46.55
2022-11-16T12:48:50.371Z,46.63
2022-11-16T12:55:26.678Z,46.74
2022-11-16T13:02:00.302Z,47.05
2022-11-16T13:08:28.314Z,47.25
2022-11-16T13:14:52.643Z,47.26
2022-11-16T13:21:18.914Z,47.27
2022-11-16T13:27:41.815Z,47.23
2022-11-16T13:34:12.708Z,47.21
2022-11-16T13:40:39.011Z,47.15
2022-11-16T13:47:03.305Z,47.08
2022-11-16T14:00:07.519Z,47.00
2022-11-16T14:06:34.930Z,46.91
2022-11-16T14:12:57.857Z,46.89
2022-11-16T14:19:22.228Z,46.76
2022-11-16T14:25:46.607Z,46.90
2022-11-16T14:32:11.129Z,47.21
2022-11-16T14:38:38.328Z,47.31
2022-11-16T14:45:02.712Z,47.32
2022-11-16T14:51:27.003Z,47.25
2022-11-16T14:58:00.601Z,47.16
2022-11-16T15:04:27.556Z,47.21
2022-11-16T15:10:52.821Z,47.16
2022-11-16T15:17:17.274Z,47.13
2022-11-16T15:23:42.374Z,47.11
2022-11-16T15:30:06.855Z,47.11
2022-11-16T15:36:34.102Z,47.12
2022-11-16T15:42:58.513Z,47.17
2022-11-16T15:49:22.854Z,47.20
2022-11-16T15:55:47.279Z,47.23
2022-11-16T16:02:11.659Z,47.25
2022-11-16T16:08:38.825Z,47.32
2022-11-16T16:15:08.915Z,47.42
2022-11-16T16:21:33.403Z,47.60
2022-11-16T16:27:57.917Z,47.66
2022-11-16T16:34:22.226Z,47.70
2022-11-16T16:40:46.711Z,47.66
2022-11-16T16:47:11.253Z,47.67
2022-11-16T16:53:36.044Z,47.66
2022-11-16T17:00:00.766Z,47.57
2022-11-16T17:06:25.174Z,47.52
2022-11-16T17:12:49.716Z,47.45
2022-11-16T17:19:14.059Z,47.32
2022-11-16T17:25:38.335Z,47.27
2022-11-16T17:31:59.175Z,47.19
2022-11-16T17:38:23.445Z,47.12
2022-11-16T17:44:47.789Z,46.96
2022-11-16T17:51:12.104Z,46.81
2022-11-16T17:57:36.469Z,46.72
2022-11-16T18:03:43.688Z,46.72
2022-11-16T18:10:08.152Z,46.69
2022-11-16T18:16:35.456Z,46.68
2022-11-16T18:22:59.739Z,46.59
2022-11-16T18:29:26.703Z,46.81
2022-11-16T18:35:51.077Z,47.02
2022-11-16T18:42:15.379Z,47.23
2022-11-16T18:48:39.721Z,47.32
2022-11-16T18:55:04.164Z,47.47
2022-11-16T19:01:28.519Z,47.54
2022-11-16T19:07:52.055Z,47.59
2022-11-16T19:14:16.399Z,47.64
2022-11-16T19:20:40.913Z,47.69
2022-11-16T19:26:57.796Z,47.73
2022-11-16T19:33:15.428Z,47.77
2022-11-16T19:39:39.807Z,47.79
2022-11-16T19:46:04.200Z,47.83
2022-11-16T19:52:28.533Z,47.91
2022-11-16T19:58:52.804Z,48.02
2022-11-16T20:05:17.177Z,48.13
2022-11-16T20:11:41.574Z,48.15
2022-11-16T20:18:05.872Z,48.13
2022-11-16T20:24:30.265Z,48.06
2022-11-16T20:30:54.685Z,48.00
2022-11-16T20:37:19.102Z,47.98
2022-11-16T20:43:43.411Z,47.93
2022-11-16T20:50:06.523Z,47.82
2022-11-16T20:56:30.912Z,47.62
2022-11-16T21:02:55.213Z,47.43
2022-11-16T21:09:19.525Z,47.38
2022-11-16T21:15:43.974Z,47.37
2022-11-16T21:21:57.090Z,47.27
2022-11-16T21:28:25.512Z,47.16
2022-11-16T21:34:50.145Z,47.06
2022-11-16T21:41:14.712Z,46.97
2022-11-16T21:47:39.063Z,46.92
2022-11-16T21:54:03.438Z,46.93
2022-11-16T22:00:27.859Z,46.93
2022-11-16T22:06:53.915Z,46.83
2022-11-16T22:13:18.406Z,46.71
2022-11-16T22:19:42.954Z,46.68
2022-11-16T22:26:07.664Z,46.69
2022-11-16T22:32:32.322Z,46.70
2022-11-16T22:38:56.826Z,46.75
2022-11-16T22:45:21.310Z,46.75
2022-11-16T22:52:01.203Z,46.76
2022-11-16T22:58:25.729Z,46.77
2022-11-16T23:04:50.309Z,46.81
2022-11-16T23:11:13.157Z,46.87
2022-11-16T23:17:37.686Z,46.92
2022-11-16T23:24:00.520Z,47.00
2022-11-16T23:30:24.846Z,47.04
2022-11-16T23:36:49.284Z,47.12
2022-11-16T23:43:12.046Z,47.18
2022-11-16T23:49:36.547Z,47.26
2022-11-16T23:56:05.546Z,47.36
